createdAt,value
2023-03-01T00:02:20.548Z,8.07
2023-03-01T00:04:47.849Z,8.93
2023-03-01T00:07:14.859Z,8.60
2023-03-01T00:09:41.706Z,8.70
2023-03-01T00:12:08.544Z,9.00
2023-03-01T00:14:36.476Z,7.60
2023-03-01T00:17:03.469Z,5.43
2023-03-01T00:19:33.150Z,8.10
2023-03-01T00:21:59.871Z,7.03
2023-03-01T00:24:26.680Z,9.37
2023-03-01T00:26:54.751Z,7.50
2023-03-01T00:29:22.392Z,8.17
2023-03-01T00:31:51.828Z,6.95
2023-03-01T00:34:18.708Z,7.97
2023-03-01T00:36:46.862Z,8.40
2023-03-01T00:39:15.973Z,6.87
2023-03-01T00:41:43.444Z,6.93
2023-03-01T00:44:10.892Z,7.47
2023-03-01T00:46:37.939Z,7.80
2023-03-01T00:49:04.848Z,7.82
2023-03-01T00:51:31.949Z,7.65
2023-03-01T00:54:01.793Z,9.02
2023-03-01T00:56:29.544Z,8.10
2023-03-01T00:58:56.744Z,7.90
2023-03-01T01:01:26.126Z,7.63
2023-03-01T01:03:56.812Z,6.53
2023-03-01T01:06:25.436Z,8.55
2023-03-01T01:08:54.538Z,7.63
2023-03-01T01:11:23.943Z,9.77
2023-03-01T01:13:51.398Z,9.10
2023-03-01T01:16:19.575Z,7.75
2023-03-01T01:18:47.367Z,7.72
2023-03-01T01:21:16.225Z,7.10
2023-03-01T01:23:44.342Z,8.30
2023-03-01T01:26:12.734Z,7.90
2023-03-01T01:28:41.529Z,7.30
2023-03-01T01:31:08.732Z,6.80
2023-03-01T01:33:35.807Z,7.03
2023-03-01T01:36:03.483Z,7.57
2023-03-01T01:38:30.419Z,7.55
2023-03-01T01:40:57.635Z,7.45
2023-03-01T01:43:26.614Z,6.05
2023-03-01T01:45:57.875Z,6.93
2023-03-01T01:48:33.689Z,6.68
2023-03-01T01:51:01.962Z,6.75
2023-03-01T01:53:31.488Z,6.03
2023-03-01T01:56:02.115Z,6.53
2023-03-01T01:58:31.343Z,7.22
2023-03-01T02:00:59.804Z,5.88
2023-03-01T02:03:30.137Z,6.00
2023-03-01T02:06:01.994Z,6.35
2023-03-01T02:08:31.557Z,6.00
2023-03-01T02:11:01.031Z,6.57
2023-03-01T02:13:28.681Z,5.22
2023-03-01T02:15:59.448Z,6.32
2023-03-01T02:18:26.713Z,5.82
2023-03-01T02:21:08.402Z,5.82
2023-03-01T02:23:35.344Z,6.82
2023-03-01T02:26:09.073Z,5.80
2023-03-01T02:28:38.401Z,6.20
2023-03-01T02:31:07.792Z,6.53
2023-03-01T02:33:37.192Z,6.03
2023-03-01T02:36:08.418Z,5.07
2023-03-01T02:38:35.196Z,5.40
2023-03-01T02:41:04.519Z,6.72
2023-03-01T02:43:33.986Z,6.20
2023-03-01T02:46:07.751Z,5.63
2023-03-01T02:48:42.835Z,5.30
2023-03-01T02:51:23.668Z,5.60
2023-03-01T02:54:00.370Z,5.47
2023-03-01T02:56:27.275Z,6.65
2023-03-01T02:58:54.152Z,5.80
2023-03-01T03:01:23.284Z,5.47
2023-03-01T03:03:50.406Z,6.18
2023-03-01T03:06:17.133Z,5.45
2023-03-01T03:08:43.842Z,5.23
2023-03-01T03:11:10.904Z,5.32
2023-03-01T03:17:00.774Z,4.97
2023-03-01T03:19:27.754Z,5.38
2023-03-01T03:21:54.609Z,5.13
2023-03-01T03:24:21.502Z,6.25
2023-03-01T03:26:48.444Z,5.30
2023-03-01T03:29:16.531Z,4.53
2023-03-01T03:31:43.502Z,5.57
2023-03-01T03:34:12.156Z,4.20
2023-03-01T03:36:39.606Z,4.88
2023-03-01T03:39:06.699Z,4.80
2023-03-01T03:41:36.491Z,4.97
2023-03-01T03:44:03.675Z,4.97
2023-03-01T03:46:30.571Z,3.97
2023-03-01T03:48:57.286Z,5.72
2023-03-01T03:51:25.771Z,5.20
2023-03-01T03:53:52.686Z,4.90
2023-03-01T03:56:19.702Z,5.38
2023-03-01T03:58:46.919Z,5.88
2023-03-01T04:01:13.719Z,4.93
2023-03-01T04:03:40.651Z,5.28
2023-03-01T04:06:07.751Z,5.15
2023-03-01T04:08:36.130Z,5.25
2023-03-01T04:11:05.010Z,5.05
2023-03-01T04:13:33.790Z,4.13
2023-03-01T04:16:00.497Z,5.40
2023-03-01T04:18:27.406Z,5.10
2023-03-01T04:20:54.690Z,5.10
2023-03-01T04:23:21.933Z,4.40
2023-03-01T04:25:51.454Z,5.00
2023-03-01T04:28:18.319Z,5.43
2023-03-01T04:30:45.424Z,5.20
2023-03-01T04:33:12.338Z,4.80
2023-03-01T04:35:39.614Z,5.35
2023-03-01T04:38:07.346Z,3.78
2023-03-01T04:40:34.557Z,4.70
2023-03-01T04:43:03.661Z,5.00
2023-03-01T04:45:30.804Z,4.95
2023-03-01T04:47:57.750Z,5.22
2023-03-01T04:50:24.653Z,5.20
2023-03-01T04:52:51.529Z,5.40
2023-03-01T04:55:18.807Z,4.75
2023-03-01T04:57:45.881Z,5.45
2023-03-01T05:00:15.129Z,5.03
2023-03-01T05:02:41.896Z,5.40
2023-03-01T05:05:08.863Z,5.28
2023-03-01T05:07:36.143Z,4.80
2023-03-01T05:10:03.014Z,5.53
2023-03-01T05:12:30.084Z,5.32
2023-03-01T05:14:56.902Z,5.45
2023-03-01T05:17:25.227Z,4.50
2023-03-01T05:19:52.255Z,5.05
2023-03-01T05:22:19.154Z,4.60
2023-03-01T05:24:45.974Z,4.50
2023-03-01T05:27:14.978Z,3.58
2023-03-01T05:29:42.422Z,4.20
2023-03-01T05:32:14.109Z,4.50
2023-03-01T05:34:44.232Z,4.05
2023-03-01T05:37:11.037Z,4.35
2023-03-01T05:39:38.674Z,3.88
2023-03-01T05:42:05.591Z,3.92
2023-03-01T05:44:33.037Z,4.53
2023-03-01T05:46:59.872Z,5.05
2023-03-01T05:49:26.676Z,5.47
2023-03-01T05:51:54.851Z,3.45
2023-03-01T05:54:22.889Z,4.15
2023-03-01T05:56:51.702Z,4.15
2023-03-01T05:59:18.514Z,3.63
2023-03-01T06:01:45.509Z,4.97
2023-03-01T06:04:14.250Z,4.35
2023-03-01T06:06:41.087Z,4.43
2023-03-01T06:09:09.312Z,4.03
2023-03-01T06:11:36.975Z,5.15
2023-03-01T06:14:03.846Z,4.30
2023-03-01T06:16:33.568Z,4.45
2023-03-01T06:19:00.512Z,4.80
2023-03-01T06:21:27.314Z,5.70
2023-03-01T06:23:54.088Z,5.43
2023-03-01T06:26:22.455Z,5.05
2023-03-01T06:28:49.373Z,5.05
2023-03-01T06:31:16.631Z,4.00
2023-03-01T06:33:43.678Z,4.43
2023-03-01T06:36:10.758Z,5.35
2023-03-01T06:38:37.620Z,4.75
2023-03-01T06:41:04.626Z,4.63
2023-03-01T06:43:32.706Z,5.32
2023-03-01T06:45:59.420Z,4.78
2023-03-01T06:48:26.328Z,4.90
2023-03-01T06:50:53.249Z,6.00
2023-03-01T06:53:20.178Z,5.55
2023-03-01T06:55:46.924Z,5.40
2023-03-01T06:58:13.850Z,5.35
2023-03-01T07:00:42.097Z,6.55
2023-03-01T07:03:09.918Z,6.65
2023-03-01T07:05:36.765Z,6.28
2023-03-01T07:08:03.965Z,5.18
2023-03-01T07:10:30.930Z,6.13
2023-03-01T07:12:59.381Z,6.22
2023-03-01T07:15:27.695Z,6.10
2023-03-01T07:17:57.318Z,6.05
2023-03-01T07:20:24.144Z,6.63
2023-03-01T07:22:50.938Z,6.00
2023-03-01T07:25:17.798Z,5.88
2023-03-01T07:27:44.600Z,6.55
2023-03-01T07:30:12.093Z,6.40
2023-03-01T07:32:38.932Z,7.45
2023-03-01T07:35:08.108Z,7.40
2023-03-01T07:37:34.810Z,7.25
2023-03-01T07:40:01.649Z,8.25
2023-03-01T07:42:28.338Z,7.65
2023-03-01T07:44:55.084Z,8.88
2023-03-01T07:47:21.803Z,7.80
2023-03-01T07:49:48.515Z,6.07
2023-03-01T07:52:16.560Z,7.20
2023-03-01T07:54:44.226Z,5.78
2023-03-01T07:57:11.605Z,6.35
2023-03-01T07:59:38.290Z,6.90
2023-03-01T08:02:05.033Z,7.78
2023-03-01T08:04:32.284Z,7.80
2023-03-01T08:06:59.468Z,7.03
2023-03-01T08:09:27.979Z,7.60
2023-03-01T08:11:54.673Z,8.40
2023-03-01T08:14:21.409Z,8.05
2023-03-01T08:16:50.378Z,8.60
2023-03-01T08:19:17.549Z,7.40
2023-03-01T08:21:44.354Z,8.43
2023-03-01T08:24:11.112Z,8.80
2023-03-01T08:26:39.364Z,9.80
2023-03-01T08:29:06.458Z,8.63
2023-03-01T08:31:36.013Z,8.60
2023-03-01T08:34:04.525Z,7.83
2023-03-01T08:36:33.389Z,9.40
2023-03-01T08:39:00.547Z,8.57
2023-03-01T08:41:27.742Z,6.60
2023-03-01T08:43:56.373Z,7.80
2023-03-01T08:46:23.139Z,8.10
2023-03-01T08:48:49.871Z,8.90
2023-03-01T08:51:21.401Z,8.70
2023-03-01T08:53:49.175Z,7.20
2023-03-01T08:56:17.073Z,6.53
2023-03-01T08:58:46.217Z,6.50
2023-03-01T09:01:16.590Z,6.93
2023-03-01T09:03:43.531Z,6.70
2023-03-01T09:06:10.951Z,7.10
2023-03-01T09:08:39.191Z,8.47
2023-03-01T09:11:07.403Z,6.57
2023-03-01T09:13:34.184Z,8.90
2023-03-01T09:16:03.777Z,6.57
2023-03-01T09:18:32.597Z,6.90
2023-03-01T09:21:02.582Z,6.80
2023-03-01T09:23:29.282Z,7.00
2023-03-01T09:25:55.970Z,6.53
2023-03-01T09:28:29.727Z,8.57
2023-03-01T09:30:59.174Z,6.13
2023-03-01T09:33:26.006Z,7.03
2023-03-01T09:35:58.567Z,7.83
2023-03-01T09:38:26.033Z,8.60
2023-03-01T09:40:54.523Z,7.20
2023-03-01T09:43:27.242Z,6.37
2023-03-01T09:45:57.390Z,5.10
2023-03-01T09:48:28.654Z,4.23
2023-03-01T09:50:57.032Z,5.17
2023-03-01T09:53:31.741Z,5.23
2023-03-01T09:56:02.859Z,5.63
2023-03-01T09:58:40.094Z,6.93
2023-03-01T10:01:24.714Z,5.40
2023-03-01T10:04:12.248Z,5.57
2023-03-01T10:06:40.509Z,6.70
2023-03-01T10:09:14.730Z,8.17
2023-03-01T10:11:46.529Z,5.70
2023-03-01T10:14:24.794Z,5.70
2023-03-01T10:16:55.292Z,6.50
2023-03-01T10:19:26.508Z,5.90
2023-03-01T10:21:53.966Z,6.23
2023-03-01T10:24:22.021Z,4.23
2023-03-01T10:26:55.930Z,3.97
2023-03-01T10:29:27.157Z,5.80
2023-03-01T10:31:54.974Z,7.20
2023-03-01T10:34:23.348Z,5.70
2023-03-01T10:36:52.211Z,5.80
2023-03-01T10:39:21.456Z,4.87
2023-03-01T10:41:59.665Z,4.10
2023-03-01T10:44:42.104Z,5.73
2023-03-01T10:47:18.781Z,5.13
2023-03-01T10:49:54.457Z,4.67
2023-03-01T10:52:23.715Z,4.17
2023-03-01T10:54:55.730Z,5.57
2023-03-01T10:57:31.164Z,5.37
2023-03-01T11:00:16.617Z,4.23
2023-03-01T11:02:43.296Z,5.50
2023-03-01T11:05:20.654Z,3.90
2023-03-01T11:07:52.968Z,5.13
2023-03-01T11:10:22.181Z,5.50
2023-03-01T11:12:52.135Z,4.97
2023-03-01T11:15:25.469Z,5.07
2023-03-01T11:17:57.092Z,4.50
2023-03-01T11:20:30.317Z,4.50
2023-03-01T11:23:00.767Z,4.33
2023-03-01T11:25:32.892Z,4.30
2023-03-01T11:28:04.190Z,5.30
2023-03-01T11:30:34.988Z,4.37
2023-03-01T11:33:14.503Z,4.90
2023-03-01T11:35:46.150Z,5.57
2023-03-01T11:38:21.965Z,5.47
2023-03-01T11:40:55.100Z,3.77
2023-03-01T11:43:30.343Z,3.43
2023-03-01T11:46:23.586Z,5.23
2023-03-01T11:48:58.987Z,4.90
2023-03-01T11:51:38.222Z,4.37
2023-03-01T11:54:18.335Z,4.83
2023-03-01T11:56:51.369Z,4.73
2023-03-01T11:59:45.915Z,4.97
2023-03-01T12:02:49.264Z,4.80
2023-03-01T12:05:39.005Z,5.67
2023-03-01T12:08:11.973Z,4.60
2023-03-01T12:10:49.836Z,4.13
2023-03-01T12:13:47.403Z,4.13
2023-03-01T12:16:38.494Z,4.40
2023-03-01T12:19:34.643Z,4.80
2023-03-01T12:22:29.707Z,4.97
2023-03-01T12:25:22.396Z,4.43
2023-03-01T12:28:04.633Z,3.47
2023-03-01T12:30:43.291Z,2.63
2023-03-01T12:33:23.511Z,4.27
2023-03-01T12:36:23.249Z,4.23
2023-03-01T12:38:51.473Z,4.30
2023-03-01T12:41:39.447Z,3.90
2023-03-01T12:44:16.394Z,3.60
2023-03-01T12:46:58.080Z,4.40
2023-03-01T12:49:31.012Z,4.93
2023-03-01T12:52:01.256Z,4.37
2023-03-01T12:54:30.554Z,4.47
2023-03-01T12:57:00.889Z,5.03
2023-03-01T12:59:37.296Z,4.23
2023-03-01T13:02:16.617Z,4.60
2023-03-01T13:05:07.427Z,3.83
2023-03-01T13:07:39.838Z,4.77
2023-03-01T13:10:18.007Z,3.90
2023-03-01T13:12:48.088Z,3.93
2023-03-01T13:15:33.206Z,4.03
2023-03-01T13:18:01.480Z,3.50
2023-03-01T13:20:33.707Z,4.07
2023-03-01T13:23:25.468Z,4.57
2023-03-01T13:26:12.823Z,5.03
2023-03-01T13:28:51.943Z,4.67
2023-03-01T13:31:58.305Z,4.30
2023-03-01T13:34:59.040Z,4.50
2023-03-01T13:37:37.944Z,5.53
2023-03-01T13:40:25.350Z,5.27
2023-03-01T13:43:04.848Z,4.80
2023-03-01T13:45:40.347Z,4.50
2023-03-01T13:48:11.819Z,3.40
2023-03-01T13:50:46.098Z,4.90
2023-03-01T13:53:19.161Z,4.03
2023-03-01T13:55:48.540Z,5.33
2023-03-01T14:00:44.715Z,4.70
2023-03-01T14:03:14.356Z,4.07
2023-03-01T14:05:42.795Z,3.77
2023-03-01T14:08:26.546Z,3.93
2023-03-01T14:11:09.718Z,3.30
2023-03-01T14:13:54.625Z,4.10
2023-03-01T14:16:33.349Z,3.97
2023-03-01T14:19:20.231Z,3.60
2023-03-01T14:22:00.983Z,5.10
2023-03-01T14:24:30.095Z,4.00
2023-03-01T14:26:56.813Z,3.43
2023-03-01T14:29:38.456Z,4.87
2023-03-01T14:32:13.919Z,4.17
2023-03-01T14:34:45.144Z,4.70
2023-03-01T14:37:18.461Z,2.90
2023-03-01T14:39:46.458Z,3.70
2023-03-01T14:42:15.905Z,4.60
2023-03-01T14:44:44.108Z,3.43
2023-03-01T14:47:13.301Z,3.77
2023-03-01T14:49:40.158Z,4.20
2023-03-01T14:52:18.327Z,3.30
2023-03-01T14:54:49.259Z,3.97
2023-03-01T14:57:17.491Z,3.90
2023-03-01T14:59:44.616Z,2.70
2023-03-01T15:02:16.588Z,3.40
2023-03-01T15:04:44.631Z,3.73
2023-03-01T15:07:14.089Z,3.40
2023-03-01T15:09:41.440Z,3.10
2023-03-01T15:12:36.675Z,2.90
2023-03-01T15:15:22.370Z,2.83
2023-03-01T15:17:54.236Z,3.40
2023-03-01T15:20:21.143Z,3.10
2023-03-01T15:22:48.430Z,3.03
2023-03-01T15:25:17.298Z,3.07
2023-03-01T15:27:49.532Z,3.80
2023-03-01T15:30:22.195Z,2.63
2023-03-01T15:32:48.917Z,3.50
2023-03-01T15:35:40.847Z,1.97
2023-03-01T15:38:26.615Z,2.77
2023-03-01T15:40:53.903Z,3.00
2023-03-01T15:43:42.231Z,3.80
2023-03-01T15:46:18.372Z,2.80
2023-03-01T15:48:46.722Z,2.67
2023-03-01T15:51:14.813Z,2.80
2023-03-01T15:53:53.849Z,2.37
2023-03-01T15:56:21.370Z,2.63
2023-03-01T15:58:49.460Z,3.50
2023-03-01T16:01:17.766Z,2.50
2023-03-01T16:03:44.900Z,2.90
2023-03-01T16:06:12.576Z,2.77
2023-03-01T16:08:39.742Z,3.07
2023-03-01T16:11:14.415Z,2.10
2023-03-01T16:13:41.212Z,2.83
2023-03-01T16:16:11.195Z,3.03
2023-03-01T16:18:38.091Z,4.00
2023-03-01T16:21:05.444Z,3.13
2023-03-01T16:23:32.197Z,3.30
2023-03-01T16:26:00.107Z,3.67
2023-03-01T16:28:28.678Z,2.70
2023-03-01T16:30:56.001Z,2.90
2023-03-01T16:33:28.606Z,2.90
2023-03-01T16:35:57.621Z,3.00
2023-03-01T16:38:24.325Z,4.03
2023-03-01T16:40:52.482Z,2.43
2023-03-01T16:43:19.651Z,2.10
2023-03-01T16:45:46.522Z,2.60
2023-03-01T16:48:13.710Z,3.17
2023-03-01T16:50:42.028Z,3.17
2023-03-01T16:53:08.904Z,2.83
2023-03-01T16:55:35.867Z,3.20
2023-03-01T16:58:02.886Z,3.50
2023-03-01T17:00:29.741Z,2.80
2023-03-01T17:02:56.494Z,2.87
2023-03-01T17:05:23.487Z,2.50
2023-03-01T17:07:51.703Z,2.87
2023-03-01T17:10:18.577Z,2.97
2023-03-01T17:12:45.288Z,2.70
2023-03-01T17:15:12.197Z,2.80
2023-03-01T17:17:39.096Z,3.70
2023-03-01T17:20:06.700Z,3.77
2023-03-01T17:22:33.347Z,3.77
2023-03-01T17:25:01.468Z,3.83
2023-03-01T17:27:28.142Z,4.20
2023-03-01T17:29:54.827Z,4.53
2023-03-01T17:32:21.698Z,5.13
2023-03-01T17:34:48.500Z,9.43
2023-03-01T17:37:15.184Z,11.10
2023-03-01T17:39:41.844Z,11.70
2023-03-01T17:42:10.021Z,9.80
2023-03-01T17:44:36.772Z,6.40
2023-03-01T17:47:04.934Z,7.27
2023-03-01T17:49:32.075Z,6.50
2023-03-01T17:51:58.925Z,6.50
2023-03-01T17:54:26.128Z,6.50
2023-03-01T17:56:53.133Z,6.40
2023-03-01T17:59:21.200Z,7.90
2023-03-01T18:01:48.013Z,6.17
2023-03-01T18:04:14.826Z,6.80
2023-03-01T18:06:41.744Z,6.40
2023-03-01T18:09:08.874Z,6.83
2023-03-01T18:11:36.541Z,5.90
2023-03-01T18:14:03.801Z,6.23
2023-03-01T18:16:32.607Z,5.70
2023-03-01T18:19:00.522Z,5.80
2023-03-01T18:21:27.612Z,5.40
2023-03-01T18:23:54.643Z,5.40
2023-03-01T18:26:22.774Z,4.77
2023-03-01T18:28:50.492Z,5.10
2023-03-01T18:31:18.889Z,6.60
2023-03-01T18:33:47.333Z,5.90
2023-03-01T18:36:18.647Z,4.40
2023-03-01T18:38:45.519Z,5.80
2023-03-01T18:41:12.228Z,6.47
2023-03-01T18:43:38.887Z,4.87
2023-03-01T18:46:05.674Z,5.00
2023-03-01T18:48:32.926Z,5.50
2023-03-01T18:51:09.559Z,4.37
2023-03-01T18:53:36.258Z,5.40
2023-03-01T18:56:03.020Z,6.37
2023-03-01T18:58:29.694Z,6.03
2023-03-01T19:00:56.350Z,7.70
2023-03-01T19:03:22.990Z,6.17
2023-03-01T19:05:50.139Z,6.07
2023-03-01T19:08:18.155Z,7.40
2023-03-01T19:10:44.813Z,6.93
2023-03-01T19:13:11.481Z,7.33
2023-03-01T19:15:38.184Z,5.67
2023-03-01T19:18:04.863Z,7.70
2023-03-01T19:20:31.514Z,7.27
2023-03-01T19:22:58.163Z,6.37
2023-03-01T19:25:26.187Z,7.47
2023-03-01T19:27:52.867Z,10.30
2023-03-01T19:30:19.683Z,7.33
2023-03-01T19:32:46.393Z,8.63
2023-03-01T19:35:13.095Z,7.87
2023-03-01T19:37:39.724Z,6.90
2023-03-01T19:40:08.158Z,8.37
2023-03-01T19:42:36.170Z,5.90
2023-03-01T19:45:03.029Z,9.17
2023-03-01T19:47:29.747Z,9.97
2023-03-01T19:49:56.396Z,10.20
2023-03-01T19:52:23.060Z,16.40
2023-03-01T19:54:51.960Z,20.00
2023-03-01T19:57:20.482Z,14.40
2023-03-01T19:59:48.530Z,10.50
2023-03-01T20:02:15.216Z,12.10
2023-03-01T20:04:41.885Z,12.10
2023-03-01T20:07:08.934Z,13.80
2023-03-01T20:09:35.631Z,10.00
2023-03-01T20:12:02.386Z,9.97
2023-03-01T20:14:29.158Z,11.63
2023-03-01T20:16:57.240Z,12.70
2023-03-01T20:19:24.041Z,10.33
2023-03-01T20:21:50.856Z,11.60
2023-03-01T20:24:17.624Z,13.60
2023-03-01T20:26:44.413Z,10.83
2023-03-01T20:29:11.224Z,14.30
2023-03-01T20:31:38.070Z,13.40
2023-03-01T20:34:06.163Z,13.70
2023-03-01T20:36:33.372Z,11.80
2023-03-01T20:39:00.614Z,12.93
2023-03-01T20:41:27.448Z,12.50
2023-03-01T20:43:54.841Z,13.33
2023-03-01T20:46:22.452Z,14.37
2023-03-01T20:48:49.214Z,13.77
2023-03-01T20:51:17.704Z,12.17
2023-03-01T20:53:44.696Z,15.63
2023-03-01T20:56:13.488Z,15.27
2023-03-01T20:58:41.042Z,13.53
2023-03-01T21:01:15.109Z,12.70
2023-03-01T21:03:41.958Z,13.53
2023-03-01T21:06:08.938Z,13.07
2023-03-01T21:08:37.797Z,12.50
2023-03-01T21:11:06.459Z,14.20
2023-03-01T21:13:35.300Z,14.70
2023-03-01T21:16:04.020Z,13.60
2023-03-01T21:18:31.892Z,15.40
2023-03-01T21:20:59.247Z,10.73
2023-03-01T21:23:26.024Z,11.83
2023-03-01T21:26:01.994Z,12.67
2023-03-01T21:28:28.687Z,13.30
2023-03-01T21:30:55.341Z,14.03
2023-03-01T21:33:22.012Z,13.37
2023-03-01T21:35:48.751Z,13.80
2023-03-01T21:38:15.450Z,13.90
2023-03-01T21:40:42.088Z,12.77
2023-03-01T21:43:10.215Z,12.80
2023-03-01T21:45:36.939Z,14.67
2023-03-01T21:48:05.524Z,16.10
2023-03-01T21:50:32.267Z,20.40
2023-03-01T21:52:59.049Z,15.30
2023-03-01T21:55:25.815Z,15.60
2023-03-01T21:57:52.586Z,15.30
2023-03-01T22:00:21.543Z,15.77
2023-03-01T22:02:48.667Z,14.37
2023-03-01T22:05:15.509Z,14.93
2023-03-01T22:07:42.167Z,14.87
2023-03-01T22:10:09.762Z,14.80
2023-03-01T22:12:36.426Z,13.63
2023-03-01T22:15:03.358Z,14.40
2023-03-01T22:17:31.330Z,13.57
2023-03-01T22:19:58.087Z,14.67
2023-03-01T22:22:24.746Z,19.17
2023-03-01T22:24:51.376Z,17.50
2023-03-01T22:27:18.144Z,13.97
2023-03-01T22:29:44.831Z,14.30
2023-03-01T22:32:11.675Z,15.37
2023-03-01T22:34:39.747Z,16.13
2023-03-01T22:37:06.499Z,16.07
2023-03-01T22:39:33.179Z,15.13
2023-03-01T22:41:59.865Z,14.80
2023-03-01T22:44:26.557Z,15.47
2023-03-01T22:46:53.365Z,13.87
2023-03-01T22:49:20.853Z,13.83
2023-03-01T22:51:49.904Z,14.43
2023-03-01T22:54:18.476Z,14.63
2023-03-01T22:56:45.416Z,12.17
2023-03-01T22:59:14.356Z,14.50
2023-03-01T23:01:42.449Z,12.95
2023-03-01T23:04:09.104Z,12.40
2023-03-01T23:06:36.085Z,12.43
2023-03-01T23:09:04.136Z,11.80
2023-03-01T23:11:30.881Z,10.60
2023-03-01T23:13:58.697Z,11.10
2023-03-01T23:16:25.443Z,11.60
2023-03-01T23:18:54.218Z,9.87
2023-03-01T23:21:21.227Z,10.37
2023-03-01T23:23:48.454Z,10.47
2023-03-01T23:26:17.363Z,9.97
2023-03-01T23:28:44.425Z,9.70
2023-03-01T23:31:13.402Z,10.07
2023-03-01T23:33:41.095Z,10.40
2023-03-01T23:36:14.899Z,9.00
2023-03-01T23:38:41.866Z,9.33
2023-03-01T23:41:09.227Z,10.80
2023-03-01T23:43:37.308Z,9.53
2023-03-01T23:46:04.457Z,8.77
2023-03-01T23:48:31.145Z,9.17
2023-03-01T23:51:03.608Z,9.80
2023-03-01T23:53:30.256Z,9.67
2023-03-01T23:55:56.922Z,8.13
2023-03-01T23:58:23.622Z,8.97
